Scroll down
FLIGHT INFORMATION
Malaysia Airlines

MAS57

At Arrival Gate

WMKK
 UBBB
DATE: 2019-03-02
GATE:  -
GATE DEPARTURE: 16:21
TAKEOFF: 16:35
DATE: 2019-03-03
GATE:  -
LANDING: 05:42
GATE ARRIVAL: 05:57
FLIGHT DATA
Crew: 
Speed: 
935 kph
Altitude: 
37,002 ft
Stage Length: 
6,652.7 km
Block Time: 
13.6 hrs
Flight Time: 
13.1 hrs
Fuel Used: 
103,869 kg
Cleared Route: WMKK SUKAT TEPUS VPG GIVAL DUKUN MAPSO MINAT IGREX PPB VATLA URKOK KAGUL LARIK DORIL OPASA IKINA OPONI PALMU ASOPO BOBET PUKES IBANI UPSOX NIKOT NOKOK UKBAB LATOS VIKIT RK PEBSI KABRA ASLUM PAROD BURTA RUTAB SAKUX PAMTU TANBU MSD BOTEK SILPO BRD GIRUN BUKEK DOGAM ETRAP HOFNI DUKAN ABROL UBBB
TRACK DATA
50,000 ft 1,000 kts
AIRCRAFT INFO AND CUMULATIVE STATS
Aircraft Type: 
B744F
Registration: 
SELCAL: 
QRDP
MSN/LN: 
28434 / 1371
Operator: 
Total Flights: 
4
Total Block Time: 
32.5 hrs
Total Flight Time: 
31.1 hrs
Total Fuel Used: 
274,751 kg
DATALINK LOG | Newest first | Current as of: 2022-12-08 12:09:47
LABEL SEQUENCE CONTENT Dn/Up
5U5437TAF UBBB 012313Z 0200/0224 28006KT 1200 BR SCT004 TX09/0210Z TN02/0203Z TEMPO 0200/0203 VRB04KT 0400 FG BKN002 BECMG 0203/0205 34016G26KT 8000 NSW BKN008▲ Up
5S4053UBBB▼ Dn
2U5437WMKK 020530Z 22005KT 140V280 9999 FEW018 BKN280 32/25 Q1009 NOSIG▲ Up
2U5437UBBB 020530Z 33011KT 9999 FEW011 BKN025 07/05 Q1007 R88/D NOSIG▲ Up
2S4043WMKK UBBB▼ Dn
Q03123[LINK ACK]▲ Up
Q01722[LINK TEST]▼ Dn


AIRCRAFT HISTORY
FLIGHT DATE FLIGHT NO. ORIGIN DESTINATION CLEARED ROUTE BLOCK TIME FLIGHT TIME FUEL USED PILOT
2019-04-07MAS9885KDFW KSLC KDFW HUDAD PNH ALS JNC RIFMN HELPR KSLC2.3 hrs2 hrs47,461 lbJhan Jensen
2019-03-16MAS314EHAM KDFW EHAM GORLO LAM MERLY LESLU DINIM 5020N 4930N 4740N 4550N RAFIN BRADD BAF BWZ HYPER SOPIE LIT FEWWW KDFW9.6 hrs9.5 hrs225,822 lbJhan Jensen
2019-03-14MAS1140UBBB EHAM UBBB RASAM NUNTI LUSAL EDELU ADEKI BADIR LAGAS AGISO TETRO ODILI ROLIN KARDE SIN SUNUM INB ADUMU OLDUD GIPDA ASBEP EVGEG ODERO LUGEB BALBI NEPOT EVRIK BUDOP ODNEM BNO ELMEK VEXIL SOPOD PEXAM LUGAX NORKU EHAM7 hrs6.5 hrs103,448 lbJhan Jensen
2019-03-02MAS57WMKK UBBB WMKK SUKAT TEPUS VPG GIVAL DUKUN MAPSO MINAT IGREX PPB VATLA URKOK KAGUL LARIK DORIL OPASA IKINA OPONI PALMU ASOPO BOBET PUKES IBANI UPSOX NIKOT NOKOK UKBAB LATOS VIKIT RK PEBSI KABRA ASLUM PAROD BURTA RUTAB SAKUX PAMTU TANBU MSD BOTEK SILPO BRD GIRUN BUKEK DOGAM ETRAP HOFNI DUKAN ABROL UBBB13.6 hrs13.1 hrs228,991 lbJhan Jensen